Time;durP1;ratioP1;P1;durP2;ratioP2;P2;SDS_P1;SDS_P2;PMS_P1;PMS_P2;Temp;Humidity;BMP_temperature;BMP_pressure;BME280_temperature;BME280_humidity;BME280_pressure;Samples;Min_cycle;Max_cycle;Signal;HPM_P1;HPM_P2
2021/09/02 00:01:30;;;;;;;8.43;6.35;;;;;;;13.41;96.08;100883.47;1768806;81;21513;-91
2021/09/02 00:03:56;;;;;;;11.35;6.55;;;;;;;13.38;96.11;100881.41;1789034;80;20971;-91
2021/09/02 00:06:22;;;;;;;9.78;6.87;;;;;;;13.37;96.17;100878.88;1797983;80;21018;-91
2021/09/02 00:08:48;;;;;;;9.58;6.08;;;;;;;13.36;96.42;100882.51;1797978;80;21022;-91
2021/09/02 00:11:14;;;;;;;9.15;5.92;;;;;;;13.36;96.52;100875.88;1798190;80;21480;-91
2021/09/02 00:13:40;;;;;;;10.28;6.87;;;;;;;13.35;96.37;100876.82;1798014;80;21057;-91
2021/09/02 00:16:07;;;;;;;8.88;6.72;;;;;;;13.33;96.46;100874.30;1798195;79;20986;-91
2021/09/02 00:18:33;;;;;;;8.83;6.33;;;;;;;13.32;96.51;100873.91;1798118;80;21034;-91
2021/09/02 00:20:59;;;;;;;8.10;6.55;;;;;;;13.31;96.51;100879.34;1798143;79;21037;-91
2021/09/02 00:23:25;;;;;;;10.82;6.15;;;;;;;13.27;96.54;100883.19;1797969;80;20974;-91
2021/09/02 00:25:52;;;;;;;10.90;7.60;;;;;;;13.26;96.76;100884.13;1798113;80;20955;-91
2021/09/02 00:28:19;;;;;;;9.10;6.97;;;;;;;13.24;96.79;100882.94;1797943;80;20931;-91
2021/09/02 00:30:45;;;;;;;10.63;7.95;;;;;;;13.23;96.96;100884.36;1797750;80;21481;-91
2021/09/02 00:33:16;;;;;;;10.13;7.42;;;;;;;13.23;97.13;100883.88;1798018;80;21057;-91
2021/09/02 00:35:44;;;;;;;9.20;6.62;;;;;;;13.23;97.19;100885.68;1798112;79;21580;-91
2021/09/02 00:38:10;;;;;;;10.53;7.20;;;;;;;13.21;97.15;100887.10;1797920;79;21508;-91
2021/09/02 00:40:36;;;;;;;11.93;7.67;;;;;;;13.19;97.28;100885.03;1798173;79;21006;-91
2021/09/02 00:43:03;;;;;;;12.10;6.90;;;;;;;13.20;97.41;100890.72;1786509;80;21024;-91
2021/09/02 00:45:29;;;;;;;9.55;7.33;;;;;;;13.21;97.46;100880.97;1765626;80;21006;-91
2021/09/02 00:47:54;;;;;;;9.58;7.17;;;;;;;13.20;97.49;100882.77;1763852;81;21461;-90
2021/09/02 00:50:21;;;;;;;10.70;7.22;;;;;;;13.18;97.51;100880.70;1763985;81;20951;-90
2021/09/02 00:52:47;;;;;;;11.93;8.00;;;;;;;13.18;97.53;100872.75;1763808;81;21038;-91
2021/09/02 00:55:13;;;;;;;12.05;8.00;;;;;;;13.19;97.63;100878.89;1764050;81;21026;-90
2021/09/02 00:57:40;;;;;;;10.15;7.08;;;;;;;13.17;97.51;100877.70;1764506;81;21543;-91
2021/09/02 01:00:14;;;;;;;12.63;7.70;;;;;;;13.15;97.49;100880.45;1768944;81;20974;-91
2021/09/02 01:02:42;;;;;;;9.75;6.70;;;;;;;13.14;97.60;100866.84;1770249;81;21047;-91
2021/09/02 01:05:09;;;;;;;10.60;7.55;;;;;;;13.14;97.62;100880.09;1774165;80;21510;-90
2021/09/02 01:07:36;;;;;;;10.15;7.58;;;;;;;13.13;97.77;100873.11;1773841;80;20999;-91
2021/09/02 01:10:04;;;;;;;10.15;8.00;;;;;;;13.13;97.66;100868.30;1774013;81;20999;-90
2021/09/02 01:12:37;;;;;;;10.05;8.10;;;;;;;13.11;97.66;100876.83;1773677;81;21031;-91
2021/09/02 01:15:17;;;;;;;10.28;7.70;;;;;;;13.10;97.66;100877.31;1774178;81;21489;-91
2021/09/02 01:17:46;;;;;;;10.20;6.78;;;;;;;13.10;97.71;100879.12;1789198;80;20962;-91
2021/09/02 01:20:16;;;;;;;9.68;7.05;;;;;;;13.08;97.73;100877.89;1794685;80;20970;-91
2021/09/02 01:22:47;;;;;;;12.63;8.00;;;;;;;13.06;97.75;100882.94;1779420;81;20993;-91
2021/09/02 01:25:16;;;;;;;9.98;7.47;;;;;;;13.07;97.95;100888.63;1772444;80;21042;-90
2021/09/02 01:27:45;;;;;;;11.10;8.23;;;;;;;13.04;97.90;100889.69;1768760;80;21048;-91
2021/09/02 01:30:14;;;;;;;10.98;8.35;;;;;;;13.00;97.92;100884.26;1768433;81;21053;-91
2021/09/02 01:32:42;;;;;;;10.75;8.70;;;;;;;12.98;98.07;100892.78;1768612;81;20993;-92
2021/09/02 01:35:11;;;;;;;12.20;9.08;;;;;;;12.93;98.13;100889.61;1769052;80;21002;-91
2021/09/02 01:37:41;;;;;;;10.90;8.65;;;;;;;12.92;98.27;100883.95;1769416;80;21001;-91
2021/09/02 01:40:11;;;;;;;12.40;8.50;;;;;;;12.92;98.38;100891.91;1768735;80;21048;-91
2021/09/02 01:42:38;;;;;;;15.68;8.83;;;;;;;12.91;98.36;100884.44;1768530;80;21085;-91
2021/09/02 01:45:06;;;;;;;12.65;8.50;;;;;;;12.89;98.19;100885.51;1768824;81;21014;-91
2021/09/02 01:47:32;;;;;;;12.33;8.68;;;;;;;12.86;98.38;100881.76;1768595;80;21033;-91
2021/09/02 01:50:10;;;;;;;10.23;8.88;;;;;;;12.84;98.44;100880.56;1768801;81;20991;-92
2021/09/02 01:52:36;;;;;;;12.53;8.78;;;;;;;12.83;98.53;100887.28;1766520;81;20963;-91
2021/09/02 01:55:06;;;;;;;10.80;8.73;;;;;;;12.81;98.75;100883.43;1768924;81;20966;-91
2021/09/02 01:57:32;;;;;;;11.15;8.55;;;;;;;12.79;98.81;100891.11;1768568;81;20962;-92
2021/09/02 01:59:58;;;;;;;13.90;10.00;;;;;;;12.76;98.92;100880.74;1769790;80;21555;-91
2021/09/02 02:02:24;;;;;;;11.38;8.83;;;;;;;12.75;99.02;100881.70;1795537;79;20947;-91
2021/09/02 02:04:50;;;;;;;11.25;8.93;;;;;;;12.74;99.10;100885.33;1780701;80;20954;-92
2021/09/02 02:07:16;;;;;;;12.15;9.45;;;;;;;12.74;99.13;100887.97;1774099;80;20974;-91
2021/09/02 02:09:43;;;;;;;13.50;9.15;;;;;;;12.71;99.14;100881.58;1772405;80;21056;-91
2021/09/02 02:12:09;;;;;;;10.32;8.98;;;;;;;12.71;99.24;100895.66;1768435;81;21033;-91
2021/09/02 02:14:36;;;;;;;12.40;9.08;;;;;;;12.67;99.21;100896.36;1768900;80;21033;-91
2021/09/02 02:17:02;;;;;;;11.35;8.33;;;;;;;12.66;99.38;100893.80;1768596;80;20982;-91
2021/09/02 02:19:28;;;;;;;11.00;9.80;;;;;;;12.65;99.40;100897.41;1768883;80;20982;-91
2021/09/02 02:21:54;;;;;;;12.43;9.13;;;;;;;12.65;99.44;100889.47;1768657;80;21009;-91
2021/09/02 02:24:20;;;;;;;12.75;9.08;;;;;;;12.64;99.40;100893.93;1768763;81;21475;-91
2021/09/02 02:26:46;;;;;;;13.32;8.60;;;;;;;12.63;99.31;100896.19;1768507;81;21539;-91
2021/09/02 02:29:12;;;;;;;11.45;9.23;;;;;;;12.62;99.35;100894.98;1768746;81;21073;-91
2021/09/02 02:31:38;;;;;;;13.05;9.03;;;;;;;12.63;99.59;100896.19;1768659;81;20978;-91
2021/09/02 02:34:05;;;;;;;10.28;9.13;;;;;;;12.64;99.44;100897.06;1768695;80;21532;-91
2021/09/02 02:36:31;;;;;;;13.65;9.98;;;;;;;12.61;99.30;100896.80;1768821;80;21009;-91
2021/09/02 02:38:57;;;;;;;11.65;9.40;;;;;;;12.61;99.38;100898.60;1768758;80;21018;-91
2021/09/02 02:41:23;;;;;;;11.95;9.48;;;;;;;12.61;99.51;100897.28;1786113;80;21504;-91
2021/09/02 02:43:49;;;;;;;12.50;10.15;;;;;;;12.60;99.56;100896.44;1797022;79;20965;-91
2021/09/02 02:46:15;;;;;;;12.75;9.10;;;;;;;12.60;99.34;100899.09;1797814;79;21006;-90
2021/09/02 02:48:41;;;;;;;10.25;8.75;;;;;;;12.57;99.14;100901.08;1797794;80;20970;-91
2021/09/02 02:51:07;;;;;;;12.18;9.50;;;;;;;12.54;99.23;100900.84;1796344;80;20975;-91
2021/09/02 02:53:33;;;;;;;13.03;8.93;;;;;;;12.52;99.33;100900.09;1790264;80;21001;-91
2021/09/02 02:55:59;;;;;;;9.38;8.08;;;;;;;12.50;99.49;100898.02;1768657;81;21097;-91
2021/09/02 02:58:25;;;;;;;10.18;8.28;;;;;;;12.50;99.43;100902.00;1731558;83;21069;-91
2021/09/02 03:00:51;;;;;;;13.38;9.50;;;;;;;12.47;99.35;100900.92;1745914;81;21001;-90
2021/09/02 03:03:17;;;;;;;13.15;9.18;;;;;;;12.43;99.26;100906.88;1750096;81;20955;-90
2021/09/02 03:05:43;;;;;;;11.38;9.53;;;;;;;12.38;99.32;100906.38;1742145;81;20986;-91
2021/09/02 03:08:09;;;;;;;13.35;8.98;;;;;;;12.35;99.43;100901.78;1742031;82;21870;-91
2021/09/02 03:10:35;;;;;;;12.30;9.40;;;;;;;12.32;99.55;100906.81;1742003;82;21019;-91
2021/09/02 03:13:01;;;;;;;11.65;8.58;;;;;;;12.29;99.73;100904.86;1741806;82;21525;-91
2021/09/02 03:15:27;;;;;;;10.35;8.58;;;;;;;12.27;99.75;100902.30;1742024;82;21036;-92
2021/09/02 03:17:53;;;;;;;13.15;9.90;;;;;;;12.28;99.88;100907.15;1732553;82;21006;-91
2021/09/02 03:20:19;;;;;;;15.85;9.55;;;;;;;12.27;99.90;100909.41;1732088;82;21516;-90
2021/09/02 03:22:45;;;;;;;10.65;9.55;;;;;;;12.26;99.85;100907.72;1734789;83;21034;-91
2021/09/02 03:25:11;;;;;;;13.40;9.38;;;;;;;12.25;99.71;100910.01;1736770;82;21037;-91
2021/09/02 03:27:37;;;;;;;13.28;9.95;;;;;;;12.22;99.91;100908.41;1736595;82;20997;-90
2021/09/02 03:30:06;;;;;;;15.60;9.98;;;;;;;12.22;99.95;100909.73;1736741;82;21049;-91
2021/09/02 03:32:32;;;;;;;13.50;9.60;;;;;;;12.19;99.78;100912.11;1736075;82;20986;-91
2021/09/02 03:34:58;;;;;;;16.57;10.78;;;;;;;12.17;99.84;100914.49;1736665;82;21104;-91
2021/09/02 03:37:24;;;;;;;14.33;9.83;;;;;;;12.15;100.00;100913.30;1713925;83;20990;-92
2021/09/02 03:39:49;;;;;;;12.75;9.65;;;;;;;12.13;100.00;100912.54;1707804;83;21053;-92
2021/09/02 03:42:15;;;;;;;13.65;10.30;;;;;;;12.11;100.00;100917.56;1730242;83;21038;-92
2021/09/02 03:44:41;;;;;;;13.08;9.60;;;;;;;12.09;100.00;100919.00;1733417;82;20939;-91
2021/09/02 03:47:07;;;;;;;13.15;10.03;;;;;;;12.08;100.00;100918.64;1741751;82;21015;-91
2021/09/02 03:49:33;;;;;;;14.55;10.40;;;;;;;12.08;100.00;100920.45;1741998;82;21002;-92
2021/09/02 03:51:59;;;;;;;11.08;9.80;;;;;;;12.09;100.00;100930.06;1741934;81;21078;-92
2021/09/02 03:54:25;;;;;;;13.10;9.80;;;;;;;12.10;100.00;100927.30;1741925;82;21528;-91
2021/09/02 03:56:51;;;;;;;12.45;9.30;;;;;;;12.11;100.00;100926.81;1741415;82;21046;-92
2021/09/02 03:59:17;;;;;;;15.60;10.00;;;;;;;12.09;100.00;100924.78;1764460;80;21517;-91
2021/09/02 04:01:43;;;;;;;13.20;9.35;;;;;;;12.06;100.00;100929.80;1789873;80;20966;-91
2021/09/02 04:04:09;;;;;;;12.68;9.63;;;;;;;12.04;100.00;100926.40;1790060;80;21440;-92
2021/09/02 04:06:35;;;;;;;14.40;10.78;;;;;;;12.02;100.00;100932.29;1789762;80;20990;-91
2021/09/02 04:09:01;;;;;;;12.13;10.13;;;;;;;11.99;100.00;100931.66;1789968;79;21519;-90
2021/09/02 04:11:27;;;;;;;11.65;9.73;;;;;;;11.98;100.00;100934.78;1789921;79;21021;-92
2021/09/02 04:13:53;;;;;;;14.15;9.68;;;;;;;11.97;100.00;100934.39;1789818;80;21010;-91
2021/09/02 04:16:19;;;;;;;13.45;9.20;;;;;;;11.94;100.00;100931.95;1790109;80;21021;-91
2021/09/02 04:18:45;;;;;;;12.35;9.65;;;;;;;11.92;100.00;100938.69;1789944;80;20967;-91
2021/09/02 04:21:11;;;;;;;14.68;10.28;;;;;;;11.89;100.00;100940.22;1789956;80;21067;-92
2021/09/02 04:23:37;;;;;;;11.40;9.10;;;;;;;11.87;100.00;100941.27;1789827;80;20979;-90
2021/09/02 04:26:03;;;;;;;14.35;10.10;;;;;;;11.84;100.00;100940.99;1780794;79;21484;-92
2021/09/02 04:28:30;;;;;;;12.43;9.15;;;;;;;11.83;100.00;100949.86;1789881;80;20994;-92
2021/09/02 04:30:56;;;;;;;13.08;9.18;;;;;;;11.84;100.00;100949.37;1789571;79;20999;-92
2021/09/02 04:33:22;;;;;;;13.10;9.35;;;;;;;11.84;100.00;100948.05;1763893;80;21004;-91
2021/09/02 04:35:48;;;;;;;12.70;9.13;;;;;;;11.83;100.00;100945.05;1763744;81;21048;-85
2021/09/02 04:38:19;;;;;;;13.05;9.78;;;;;;;11.81;100.00;100947.78;1763396;81;21043;-90
2021/09/02 04:40:48;;;;;;;10.85;8.53;;;;;;;11.84;100.00;100952.89;1788328;80;20986;-90
2021/09/02 04:43:14;;;;;;;13.25;9.38;;;;;;;11.85;100.00;100951.96;1794547;80;21019;-90
2021/09/02 04:45:41;;;;;;;13.83;9.08;;;;;;;11.85;100.00;100959.05;1794637;79;21013;-89
2021/09/02 04:48:16;;;;;;;11.60;8.78;;;;;;;11.85;100.00;100953.77;1794885;80;21005;-90
2021/09/02 04:50:44;;;;;;;13.25;8.58;;;;;;;11.86;100.00;100959.42;1795056;79;21524;-90
2021/09/02 04:53:11;;;;;;;11.22;9.15;;;;;;;11.85;100.00;100949.31;1794699;80;21556;-89
2021/09/02 04:55:37;;;;;;;11.22;9.28;;;;;;;11.86;100.00;100950.16;1795357;79;20994;-89
2021/09/02 04:58:04;;;;;;;10.32;8.08;;;;;;;11.85;100.00;100957.73;1795220;79;20939;-91
2021/09/02 05:00:31;;;;;;;13.35;9.35;;;;;;;11.84;100.00;100958.18;1797299;80;21049;-91
2021/09/02 05:02:56;;;;;;;12.07;8.28;;;;;;;11.85;100.00;100959.89;1789722;80;21445;-90
2021/09/02 05:05:22;;;;;;;12.40;8.45;;;;;;;11.87;100.00;100965.91;1790003;79;21052;-90
2021/09/02 05:07:48;;;;;;;11.20;8.28;;;;;;;11.87;100.00;100964.59;1789762;79;21045;-91
2021/09/02 05:10:14;;;;;;;10.70;7.92;;;;;;;11.90;100.00;100964.86;1789995;79;21006;-90
2021/09/02 05:12:40;;;;;;;11.10;9.00;;;;;;;11.90;100.00;100963.53;1789713;80;21046;-89
2021/09/02 05:15:07;;;;;;;14.15;8.98;;;;;;;11.93;100.00;100969.94;1790011;80;21422;-91
2021/09/02 05:17:33;;;;;;;13.98;9.93;;;;;;;11.95;100.00;100968.89;1789771;80;21046;-90
2021/09/02 05:19:59;;;;;;;17.15;10.48;;;;;;;11.98;100.00;100969.17;1790004;79;20990;-91
2021/09/02 05:22:25;;;;;;;12.85;9.08;;;;;;;11.97;100.00;100968.30;1789714;80;21449;-90
2021/09/02 05:24:51;;;;;;;13.03;9.08;;;;;;;11.99;100.00;100969.53;1789898;79;21460;-88
2021/09/02 05:27:18;;;;;;;13.03;10.08;;;;;;;12.01;100.00;100972.05;1789827;79;20951;-89
2021/09/02 05:29:44;;;;;;;11.53;9.63;;;;;;;12.01;100.00;100968.96;1789900;79;21053;-89
2021/09/02 05:32:10;;;;;;;13.00;9.93;;;;;;;12.01;100.00;100969.41;1789497;80;21014;-90
2021/09/02 05:34:36;;;;;;;11.20;9.45;;;;;;;12.01;100.00;100970.28;1790051;79;20970;-90
2021/09/02 05:37:02;;;;;;;12.70;9.38;;;;;;;12.03;100.00;100971.00;1789633;80;21018;-90
2021/09/02 05:39:28;;;;;;;12.40;9.88;;;;;;;12.04;100.00;100972.69;1790020;79;21093;-89
2021/09/02 05:41:55;;;;;;;10.93;8.75;;;;;;;12.05;100.00;100980.17;1789664;79;20970;-89
2021/09/02 05:44:21;;;;;;;11.68;9.18;;;;;;;12.07;100.00;100979.58;1790002;80;21007;-90
2021/09/02 05:46:47;;;;;;;11.90;8.43;;;;;;;12.08;100.00;100979.48;1789632;79;21057;-90
2021/09/02 05:49:13;;;;;;;12.58;9.08;;;;;;;12.10;100.00;100984.66;1790014;79;20978;-90
2021/09/02 05:51:39;;;;;;;13.78;8.55;;;;;;;12.13;100.00;100987.94;1789821;80;21021;-90
2021/09/02 05:54:05;;;;;;;12.47;9.60;;;;;;;12.17;100.00;100992.54;1789613;80;21006;-90
2021/09/02 05:56:31;;;;;;;13.22;8.53;;;;;;;12.20;100.00;100998.46;1789774;79;20958;-90
2021/09/02 05:58:57;;;;;;;15.18;9.25;;;;;;;12.23;100.00;101002.70;1789849;80;20932;-92
2021/09/02 06:01:23;;;;;;;14.35;9.33;;;;;;;12.27;100.00;101011.28;1789817;79;21053;-90
2021/09/02 06:03:49;;;;;;;15.23;9.23;;;;;;;12.31;100.00;101009.66;1789622;79;21014;-89
2021/09/02 06:06:15;;;;;;;14.23;9.70;;;;;;;12.38;100.00;101008.75;1789860;80;21506;-92
2021/09/02 06:08:42;;;;;;;17.20;9.78;;;;;;;12.38;100.00;101008.75;1789693;79;21461;-91
2021/09/02 06:11:08;;;;;;;15.05;11.93;;;;;;;12.42;100.00;101008.91;1789803;80;21010;-91
2021/09/02 06:13:34;;;;;;;13.10;9.08;;;;;;;12.46;100.00;101017.00;1789599;80;21462;-91
2021/09/02 06:16:01;;;;;;;9.98;8.28;;;;;;;12.50;100.00;101014.98;1789913;79;20994;-90
2021/09/02 06:18:29;;;;;;;11.97;8.45;;;;;;;12.54;100.00;101017.33;1789730;79;20987;-90
2021/09/02 06:20:55;;;;;;;9.88;8.28;;;;;;;12.57;100.00;101014.46;1789814;80;21049;-90
2021/09/02 06:23:21;;;;;;;9.43;7.62;;;;;;;12.62;100.00;101014.13;1789647;80;21017;-90
2021/09/02 06:25:47;;;;;;;19.30;7.40;;;;;;;12.65;100.00;101017.89;1789818;79;20967;-90
2021/09/02 06:28:14;;;;;;;11.55;7.87;;;;;;;12.69;100.00;101015.39;1789676;79;20995;-91
2021/09/02 06:30:40;;;;;;;10.35;6.92;;;;;;;12.73;100.00;101016.85;1789819;80;20975;-90
2021/09/02 06:33:06;;;;;;;10.75;8.43;;;;;;;12.78;100.00;101013.90;1789545;79;21053;-89
2021/09/02 06:35:32;;;;;;;16.32;9.28;;;;;;;12.82;100.00;101015.37;1789781;80;21015;-91
2021/09/02 06:37:58;;;;;;;11.10;7.62;;;;;;;12.84;100.00;101014.80;1789679;79;21062;-90
2021/09/02 06:40:24;;;;;;;14.25;8.65;;;;;;;12.87;100.00;101011.44;1789616;80;21049;-91
2021/09/02 06:42:50;;;;;;;11.05;8.18;;;;;;;12.91;100.00;101016.88;1789736;79;20991;-90
2021/09/02 06:45:17;;;;;;;8.85;7.53;;;;;;;12.97;100.00;101017.41;1789824;80;21489;-91
2021/09/02 06:47:44;;;;;;;12.07;8.28;;;;;;;13.01;100.00;101026.34;1789379;80;21061;-91
2021/09/02 06:50:13;;;;;;;10.05;7.62;;;;;;;13.06;100.00;101022.03;1789993;79;21073;-90
2021/09/02 06:52:41;;;;;;;9.90;7.28;;;;;;;13.11;100.00;101019.91;1789754;79;21034;-90
2021/09/02 06:55:09;;;;;;;12.65;7.95;;;;;;;13.15;100.00;101017.40;1789678;79;21018;-92
2021/09/02 06:57:35;;;;;;;11.70;9.50;;;;;;;13.21;100.00;101019.61;1789768;79;21030;-91
2021/09/02 07:00:05;;;;;;;10.75;8.13;;;;;;;13.27;100.00;101023.17;1789644;80;21595;-92
2021/09/02 07:02:31;;;;;;;10.53;7.60;;;;;;;13.32;100.00;101023.66;1789451;80;20964;-91
2021/09/02 07:04:57;;;;;;;11.15;7.40;;;;;;;13.38;100.00;101027.69;1789902;79;20967;-91
2021/09/02 07:07:23;;;;;;;13.05;8.58;;;;;;;13.45;100.00;101036.03;1789503;80;20978;-91
2021/09/02 07:09:49;;;;;;;10.53;7.90;;;;;;;13.50;100.00;101029.44;1789865;80;21497;-89
2021/09/02 07:12:15;;;;;;;12.28;7.05;;;;;;;13.56;100.00;101044.06;1789571;80;20999;-93
2021/09/02 07:14:41;;;;;;;9.83;7.08;;;;;;;13.59;100.00;101036.72;1790184;79;21394;-92
2021/09/02 07:17:07;;;;;;;9.78;7.55;;;;;;;13.67;100.00;101043.26;1789704;80;20982;-91
2021/09/02 07:19:33;;;;;;;11.18;7.60;;;;;;;13.73;100.00;101043.65;1789910;80;21447;-92
2021/09/02 07:21:59;;;;;;;11.75;8.20;;;;;;;13.79;100.00;101040.55;1789675;79;21038;-91
2021/09/02 07:24:25;;;;;;;10.03;8.28;;;;;;;13.86;100.00;101038.27;1784225;80;21021;-91
2021/09/02 07:26:51;;;;;;;9.20;6.42;;;;;;;13.91;100.00;101040.08;1770524;79;21011;-92
2021/09/02 07:29:17;;;;;;;7.80;5.95;;;;;;;13.99;100.00;101039.53;1763428;81;20991;-92
2021/09/02 07:31:44;;;;;;;10.70;7.30;;;;;;;14.04;100.00;101038.19;1772907;81;20989;-92
2021/09/02 07:34:10;;;;;;;16.40;7.80;;;;;;;14.11;100.00;101043.87;1769829;81;21086;-92
2021/09/02 07:36:37;;;;;;;10.48;7.12;;;;;;;14.18;100.00;101036.30;1772991;80;20984;-90
2021/09/02 07:39:05;;;;;;;9.10;6.37;;;;;;;14.24;100.00;101034.50;1773928;81;20998;-90
2021/09/02 07:41:32;;;;;;;8.10;5.60;;;;;;;14.30;100.00;101044.17;1771878;79;20995;-93
2021/09/02 07:43:58;;;;;;;9.03;6.08;;;;;;;14.38;100.00;101042.27;1763547;79;20971;-89
2021/09/02 07:46:29;;;;;;;7.58;5.30;;;;;;;14.44;100.00;101044.42;1766086;79;21026;-92
2021/09/02 07:48:55;;;;;;;9.78;5.65;;;;;;;14.52;100.00;101051.36;1779007;79;21011;-91
2021/09/02 07:51:21;;;;;;;8.50;5.28;;;;;;;14.59;100.00;101049.08;1769867;80;20949;-92
2021/09/02 07:53:48;;;;;;;7.65;5.15;;;;;;;14.65;100.00;101048.60;1758842;80;20955;-92
2021/09/02 07:56:14;;;;;;;5.67;4.30;;;;;;;14.73;100.00;101050.64;1762452;79;20984;-91
2021/09/02 07:58:42;;;;;;;7.65;5.28;;;;;;;14.80;100.00;101044.36;1756472;80;20987;-91
2021/09/02 08:01:12;;;;;;;7.00;5.65;;;;;;;14.86;100.00;101047.88;1762962;80;21541;-91
2021/09/02 08:03:37;;;;;;;7.97;4.90;;;;;;;14.93;100.00;101051.73;1777040;79;21042;-91
2021/09/02 08:06:04;;;;;;;8.65;5.75;;;;;;;15.02;99.62;101056.31;1771146;80;21055;-88
2021/09/02 08:08:31;;;;;;;8.58;5.03;;;;;;;15.09;99.35;101051.36;1768698;79;21022;-92
2021/09/02 08:10:57;;;;;;;7.40;5.67;;;;;;;15.15;99.67;101045.06;1769137;80;20978;-92
2021/09/02 08:13:23;;;;;;;8.20;5.33;;;;;;;15.22;99.61;101049.40;1774194;81;21003;-92
2021/09/02 08:15:49;;;;;;;5.97;4.17;;;;;;;15.30;99.36;101054.09;1776770;80;20946;-92
2021/09/02 08:18:15;;;;;;;7.05;5.05;;;;;;;15.38;99.02;101059.64;1767696;79;21094;-92
2021/09/02 08:20:42;;;;;;;6.80;4.50;;;;;;;15.46;98.71;101055.86;1761402;80;20995;-90
2021/09/02 08:23:08;;;;;;;7.67;4.75;;;;;;;15.54;99.00;101053.92;1740115;81;20977;-92
2021/09/02 08:25:35;;;;;;;5.80;4.65;;;;;;;15.62;98.54;101054.13;1754657;80;21644;-91
2021/09/02 08:28:01;;;;;;;5.80;4.83;;;;;;;15.73;98.47;101055.92;1767850;80;20983;-92
2021/09/02 08:30:29;;;;;;;6.55;4.37;;;;;;;15.81;97.72;101056.16;1752301;80;21010;-92
2021/09/02 08:32:58;;;;;;;5.95;4.22;;;;;;;15.86;98.23;101053.94;1742603;81;20996;-91
2021/09/02 08:35:28;;;;;;;7.35;4.75;;;;;;;15.92;98.03;101046.28;1738589;82;21021;-92
2021/09/02 08:37:59;;;;;;;6.05;4.85;;;;;;;16.01;98.50;101050.00;1740981;80;20994;-89
2021/09/02 08:40:30;;;;;;;6.55;4.20;;;;;;;16.12;98.08;101054.41;1765629;80;21053;-89
2021/09/02 08:42:57;;;;;;;5.03;3.47;;;;;;;16.21;96.84;101056.30;1763073;80;21007;-91
2021/09/02 08:45:25;;;;;;;6.80;4.72;;;;;;;16.29;95.75;101043.20;1768499;81;20980;-93
2021/09/02 08:47:52;;;;;;;5.72;4.05;;;;;;;16.38;96.61;101057.53;1759305;80;21037;-92
2021/09/02 08:50:23;;;;;;;5.37;4.20;;;;;;;16.47;96.77;101051.91;1754441;80;21503;-89
2021/09/02 08:52:52;;;;;;;5.37;4.08;;;;;;;16.55;95.78;101054.28;1754181;80;21585;-92
2021/09/02 08:55:19;;;;;;;7.15;4.67;;;;;;;16.65;96.22;101057.00;1767260;80;21622;-92
2021/09/02 08:57:53;;;;;;;6.50;4.40;;;;;;;16.77;95.87;101062.60;1765768;80;20990;-91
2021/09/02 09:00:27;;;;;;;5.10;4.10;;;;;;;16.88;95.83;101063.02;1761456;80;21001;-91
2021/09/02 09:03:01;;;;;;;4.62;3.40;;;;;;;16.99;95.76;101067.41;1745766;80;21031;-92
2021/09/02 09:05:32;;;;;;;5.62;4.30;;;;;;;17.08;93.85;101058.60;1760406;80;20988;-92
2021/09/02 09:07:59;;;;;;;7.17;3.12;;;;;;;17.17;95.43;101058.25;1759229;80;21006;-90
2021/09/02 09:10:29;;;;;;;5.58;4.00;;;;;;;17.27;94.34;101057.29;1750468;80;21020;-90
2021/09/02 09:13:04;;;;;;;4.67;3.95;;;;;;;17.37;92.93;101059.14;1762790;80;21064;-92
2021/09/02 09:15:35;;;;;;;5.28;3.77;;;;;;;17.45;93.72;101051.31;1770981;80;21830;-92
2021/09/02 09:18:21;;;;;;;4.83;3.22;;;;;;;17.53;92.91;101054.11;1751015;80;20999;-90
2021/09/02 09:21:11;;;;;;;5.70;3.12;;;;;;;17.65;91.14;101053.50;1756024;80;21004;-91
2021/09/02 09:24:02;;;;;;;13.48;9.25;;;;;;;17.76;90.97;101051.56;1769182;80;21476;-92
2021/09/02 09:26:30;;;;;;;5.45;3.80;;;;;;;17.85;90.44;101043.70;1741362;81;21122;-92
2021/09/02 09:29:01;;;;;;;6.00;3.72;;;;;;;17.98;91.24;101050.44;1733981;83;21024;-92
2021/09/02 09:31:36;;;;;;;3.87;3.30;;;;;;;18.06;91.15;101044.38;1730495;82;21257;-88
2021/09/02 09:34:06;;;;;;;4.65;3.60;;;;;;;18.17;89.94;101043.40;1752277;80;20984;-91
2021/09/02 09:36:36;;;;;;;7.15;4.28;;;;;;;18.26;89.28;101050.52;1752291;80;20996;-90
2021/09/02 09:39:12;;;;;;;5.20;3.45;;;;;;;18.27;89.25;101052.23;1755691;80;20966;-91
2021/09/02 09:41:45;;;;;;;6.87;4.50;;;;;;;18.27;89.41;101056.24;1773675;80;21077;-90
2021/09/02 09:44:27;;;;;;;4.58;3.42;;;;;;;18.28;88.36;101048.07;1763521;80;20957;-92
2021/09/02 09:47:17;;;;;;;4.50;2.98;;;;;;;18.34;88.41;101045.82;1757202;80;21563;-91
2021/09/02 09:49:59;;;;;;;6.08;4.03;;;;;;;18.44;88.66;101051.48;1752399;80;21032;-91
2021/09/02 09:52:41;;;;;;;5.28;3.20;;;;;;;18.45;87.86;101050.98;1753644;80;21068;-92
2021/09/02 09:55:13;;;;;;;5.65;3.55;;;;;;;18.42;85.95;101049.94;1738683;80;21104;-91
2021/09/02 09:57:43;;;;;;;5.62;3.08;;;;;;;18.46;87.69;101046.84;1751929;80;21044;-88
2021/09/02 10:00:17;;;;;;;4.15;3.22;;;;;;;18.54;85.88;101044.78;1769817;80;21528;-91
2021/09/02 10:02:46;;;;;;;5.08;3.72;;;;;;;18.58;85.61;101049.33;1787100;80;21045;-91
2021/09/02 10:05:15;;;;;;;4.87;2.83;;;;;;;18.60;85.88;101049.55;1764561;80;20962;-90
2021/09/02 10:07:45;;;;;;;4.25;2.90;;;;;;;18.60;84.75;101042.86;1761068;80;21000;-89
2021/09/02 10:10:15;;;;;;;4.83;3.30;;;;;;;18.66;83.41;101046.29;1751234;80;21003;-91
2021/09/02 10:12:47;;;;;;;4.47;3.27;;;;;;;18.66;82.91;101034.27;1769608;80;21040;-91
2021/09/02 10:15:17;;;;;;;6.05;3.95;;;;;;;18.81;83.22;101045.33;1764047;80;21477;-92
2021/09/02 10:17:45;;;;;;;5.03;3.55;;;;;;;18.83;82.48;101026.48;1762288;80;20983;-91
2021/09/02 10:20:27;;;;;;;5.78;3.00;;;;;;;18.83;82.48;101026.48;1738900;80;21001;-90
2021/09/02 10:22:58;;;;;;;6.25;3.60;;;;;;;19.03;81.55;101050.80;1757725;80;20997;-91
2021/09/02 10:25:37;;;;;;;4.85;3.90;;;;;;;19.05;82.37;101051.50;1746317;80;20986;-92
2021/09/02 10:28:17;;;;;;;5.03;4.20;;;;;;;19.09;81.91;101051.55;1758885;81;21546;-90
2021/09/02 10:30:51;;;;;;;6.10;3.52;;;;;;;19.21;82.33;101045.47;1748153;81;21026;-90
2021/09/02 10:33:48;;;;;;;5.28;4.08;;;;;;;19.21;82.33;101045.47;1749994;80;21817;-90
2021/09/02 10:36:19;;;;;;;5.95;3.80;;;;;;;19.33;82.74;101049.63;1756871;80;21552;-90
2021/09/02 10:38:55;;;;;;;5.37;4.25;;;;;;;19.43;80.46;101054.42;1766179;80;21021;-89
2021/09/02 10:41:44;;;;;;;5.15;3.80;;;;;;;19.47;78.46;101046.93;1752422;80;21031;-91
2021/09/02 10:44:16;;;;;;;5.60;4.30;;;;;;;19.50;79.83;101054.66;1753473;80;21008;-91
2021/09/02 10:46:47;;;;;;;5.25;3.67;;;;;;;19.57;80.11;101049.03;1762151;80;21047;-91
2021/09/02 10:49:35;;;;;;;5.08;3.20;;;;;;;19.64;79.23;101044.81;1755128;80;21009;-92
2021/09/02 10:52:31;;;;;;;9.20;4.80;;;;;;;19.73;79.29;101050.23;1749234;80;21034;-92
2021/09/02 10:54:55;;;;;;;5.20;3.83;;;;;;;19.80;77.02;101047.27;1752492;80;21028;-89
2021/09/02 10:57:27;;;;;;;6.05;4.70;;;;;;;19.85;77.66;101051.19;1747773;80;21145;-90
2021/09/02 10:59:54;;;;;;;5.67;4.00;;;;;;;19.89;77.43;101048.53;1767700;80;20981;-92
2021/09/02 11:02:28;;;;;;;5.28;3.95;;;;;;;19.95;76.56;101049.76;1783890;80;21073;-91
2021/09/02 11:05:04;;;;;;;6.00;4.35;;;;;;;20.00;77.87;101039.41;1749382;81;21033;-92
2021/09/02 11:07:44;;;;;;;6.33;4.92;;;;;;;20.05;77.19;101042.47;1747415;80;20988;-91
2021/09/02 11:10:16;;;;;;;7.80;5.60;;;;;;;20.04;75.95;101038.59;1758864;80;21789;-90
2021/09/02 11:12:44;;;;;;;6.15;3.80;;;;;;;20.03;75.60;101035.08;1750682;81;20983;-91
2021/09/02 11:15:20;;;;;;;6.42;5.42;;;;;;;20.10;76.47;101041.52;1747904;80;20987;-92
2021/09/02 11:17:58;;;;;;;6.65;4.62;;;;;;;20.19;76.13;101045.59;1755809;80;20952;-91
2021/09/02 11:20:28;;;;;;;6.37;4.55;;;;;;;20.28;74.92;101048.17;1761232;80;21015;-90
2021/09/02 11:23:17;;;;;;;5.70;4.28;;;;;;;20.35;74.74;101044.36;1772536;80;21519;-90